Time;durP1;ratioP1;P1;durP2;ratioP2;P2;SDS_P1;SDS_P2;PMS_P1;PMS_P2;Temp;Humidity;BMP_temperature;BMP_pressure;BME280_temperature;BME280_humidity;BME280_pressure;Samples;Min_cycle;Max_cycle;Signal;HPM_P1;HPM_P2
2023/03/24 00:00:59;;;;;;;6.90;3.10;;;;;;;10.28;100.00;99983.31;5052377;28;20470;-67
2023/03/24 00:03:28;;;;;;;5.83;1.83;;;;;;;10.28;100.00;99983.31;5053142;28;20438;-68
2023/03/24 00:05:57;;;;;;;6.97;2.90;;;;;;;10.33;100.00;99980.47;5052780;28;20935;-68
2023/03/24 00:08:29;;;;;;;6.00;2.07;;;;;;;10.34;100.00;99986.69;5052448;28;20438;-68
2023/03/24 00:11:00;;;;;;;6.43;2.20;;;;;;;10.37;100.00;99983.34;5052846;28;20470;-69
2023/03/24 00:13:27;;;;;;;7.50;2.20;;;;;;;10.29;100.00;99984.91;5052665;28;20975;-68
2023/03/24 00:15:54;;;;;;;7.10;1.73;;;;;;;10.30;100.00;99985.72;5051231;28;20492;-68
2023/03/24 00:18:24;;;;;;;5.50;1.70;;;;;;;10.29;100.00;99979.50;5052354;28;20446;-68
2023/03/24 00:20:57;;;;;;;8.53;2.13;;;;;;;10.27;100.00;99972.78;5053076;28;21025;-69
2023/03/24 00:23:26;;;;;;;7.50;2.50;;;;;;;10.22;100.00;99967.50;5052938;28;20437;-68
2023/03/24 00:26:02;;;;;;;8.50;2.80;;;;;;;10.19;100.00;99968.94;5052301;28;20482;-69
2023/03/24 00:28:30;;;;;;;7.97;2.33;;;;;;;10.15;100.00;99965.25;5043882;28;20452;-67
2023/03/24 00:30:57;;;;;;;7.80;2.20;;;;;;;10.13;100.00;99958.56;5052335;28;20565;-68
2023/03/24 00:33:24;;;;;;;7.10;2.37;;;;;;;10.18;100.00;99953.81;5051860;28;20489;-68
2023/03/24 00:35:52;;;;;;;5.37;1.73;;;;;;;10.27;100.00;99956.56;5052742;28;20450;-69
2023/03/24 00:38:19;;;;;;;9.93;2.37;;;;;;;10.30;100.00;99951.31;5052810;28;20435;-68
2023/03/24 00:40:49;;;;;;;7.23;2.47;;;;;;;10.30;100.00;99947.81;5055140;28;20466;-68
2023/03/24 00:43:16;;;;;;;6.33;2.00;;;;;;;10.32;100.00;99951.81;5056078;28;20869;-67
2023/03/24 00:45:45;;;;;;;6.00;2.03;;;;;;;10.40;100.00;99947.50;5056304;28;20797;-68
2023/03/24 00:48:12;;;;;;;6.13;2.07;;;;;;;10.43;100.00;99940.69;5056168;28;20450;-67
2023/03/24 00:50:39;;;;;;;5.93;1.70;;;;;;;10.49;100.00;99944.81;5055782;28;21017;-67
2023/03/24 00:53:06;;;;;;;9.67;3.70;;;;;;;10.47;100.00;99936.22;5056614;28;20509;-67
2023/03/24 00:55:32;;;;;;;7.37;2.30;;;;;;;10.54;100.00;99934.66;5056398;28;20486;-67
2023/03/24 00:58:01;;;;;;;8.63;2.90;;;;;;;10.58;100.00;99941.03;5055700;28;20541;-68
2023/03/24 01:00:28;;;;;;;7.10;1.90;;;;;;;10.56;100.00;99939.75;5055851;28;20505;-67
2023/03/24 01:02:56;;;;;;;7.00;2.60;;;;;;;10.63;100.00;99937.38;5056172;28;20450;-69
2023/03/24 01:05:26;;;;;;;7.30;2.43;;;;;;;10.68;100.00;99936.44;5056318;28;20472;-68
2023/03/24 01:07:56;;;;;;;9.80;2.80;;;;;;;10.71;100.00;99925.72;5056014;28;20442;-69
2023/03/24 01:10:25;;;;;;;6.43;2.13;;;;;;;10.73;100.00;99918.09;5054971;28;20515;-68
2023/03/24 01:12:53;;;;;;;6.30;1.73;;;;;;;10.75;100.00;99905.03;5055840;28;20442;-68
2023/03/24 01:15:25;;;;;;;7.83;2.40;;;;;;;10.74;100.00;99899.94;5056138;28;20481;-68
2023/03/24 01:17:53;;;;;;;5.87;1.83;;;;;;;10.76;100.00;99898.50;5055823;28;20423;-68
2023/03/24 01:20:21;;;;;;;6.80;2.00;;;;;;;10.75;100.00;99899.59;5054977;28;20471;-68
2023/03/24 01:22:50;;;;;;;7.23;2.83;;;;;;;10.78;100.00;99898.97;5055543;28;20505;-67
2023/03/24 01:25:19;;;;;;;12.90;2.60;;;;;;;10.81;100.00;99895.63;5055741;28;20499;-68
2023/03/24 01:27:47;;;;;;;8.43;2.40;;;;;;;10.82;100.00;99891.81;5055865;28;20469;-69
2023/03/24 01:30:16;;;;;;;8.50;2.67;;;;;;;10.85;100.00;99876.84;5055226;28;20547;-69
2023/03/24 01:32:45;;;;;;;6.50;2.17;;;;;;;10.88;100.00;99881.59;5054445;28;20844;-67
2023/03/24 01:35:11;;;;;;;6.93;2.33;;;;;;;10.82;100.00;99877.47;5055292;28;21029;-68
2023/03/24 01:37:39;;;;;;;6.73;2.60;;;;;;;10.78;100.00;99863.75;5055490;28;20445;-68
2023/03/24 01:40:08;;;;;;;5.57;1.80;;;;;;;10.81;100.00;99854.22;5055601;28;20459;-66
2023/03/24 01:42:37;;;;;;;6.10;1.87;;;;;;;10.76;100.00;99848.97;5054899;28;21029;-68
2023/03/24 01:45:37;;;;;;;6.40;2.37;;;;;;;10.73;100.00;99838.75;5055643;28;20438;-68
2023/03/24 01:48:06;;;;;;;6.70;2.33;;;;;;;10.70;100.00;99839.38;5055697;28;20434;-68
2023/03/24 01:50:33;;;;;;;7.13;2.43;;;;;;;10.71;100.00;99839.06;5054657;28;20466;-68
2023/03/24 01:53:01;;;;;;;7.10;2.50;;;;;;;10.70;100.00;99842.88;5054740;28;20442;-68
2023/03/24 01:55:29;;;;;;;6.10;2.13;;;;;;;10.69;100.00;99835.88;5054588;28;20903;-68
2023/03/24 01:57:59;;;;;;;5.40;1.60;;;;;;;10.63;100.00;99839.09;5054843;28;21005;-68
2023/03/24 02:00:26;;;;;;;8.17;1.70;;;;;;;10.63;100.00;99829.06;5055203;28;20526;-67
2023/03/24 02:02:57;;;;;;;5.10;1.20;;;;;;;10.63;100.00;99828.25;5054084;28;20549;-68
2023/03/24 02:05:29;;;;;;;6.50;2.10;;;;;;;10.65;100.00;99813.25;5055266;28;20427;-67
2023/03/24 02:08:04;;;;;;;5.87;1.63;;;;;;;10.67;100.00;99805.63;5055266;28;20430;-67
2023/03/24 02:10:33;;;;;;;6.30;2.00;;;;;;;10.72;100.00;99805.47;5055094;28;20514;-68
2023/03/24 02:13:00;;;;;;;6.40;2.23;;;;;;;10.75;100.00;99812.91;5054650;28;20438;-68
2023/03/24 02:15:30;;;;;;;6.40;1.80;;;;;;;10.82;100.00;99810.53;5054168;28;21072;-68
2023/03/24 02:18:06;;;;;;;6.60;2.13;;;;;;;10.84;100.00;99805.56;5054493;28;20442;-68
2023/03/24 02:20:58;;;;;;;5.93;1.60;;;;;;;10.89;100.00;99803.81;5054995;28;20466;-68
2023/03/24 02:23:52;;;;;;;5.23;1.53;;;;;;;10.92;100.00;99797.75;5054625;28;20520;-68
2023/03/24 02:26:47;;;;;;;6.23;1.83;;;;;;;10.96;100.00;99780.53;5054582;28;20529;-68
2023/03/24 02:29:36;;;;;;;5.60;1.80;;;;;;;11.02;100.00;99778.44;5054541;28;20427;-68
2023/03/24 02:32:34;;;;;;;5.23;1.40;;;;;;;11.06;100.00;99779.38;5054255;28;20458;-68
2023/03/24 02:35:30;;;;;;;6.87;2.20;;;;;;;11.13;100.00;99771.56;5051441;28;20987;-68
2023/03/24 02:38:15;;;;;;;6.27;1.90;;;;;;;11.22;100.00;99777.75;5054168;28;20908;-68
2023/03/24 02:40:48;;;;;;;5.70;2.00;;;;;;;11.24;100.00;99775.50;5054185;28;20474;-68
2023/03/24 02:43:29;;;;;;;5.77;2.00;;;;;;;11.28;100.00;99776.44;5054171;28;20422;-68
2023/03/24 02:46:12;;;;;;;5.83;2.00;;;;;;;11.28;100.00;99779.16;5053943;28;20446;-68
2023/03/24 02:48:47;;;;;;;6.97;2.03;;;;;;;11.26;100.00;99767.84;5054159;28;20430;-68
2023/03/24 02:51:20;;;;;;;6.17;2.30;;;;;;;11.28;100.00;99778.34;5054246;28;20462;-68
2023/03/24 02:53:55;;;;;;;5.80;1.87;;;;;;;11.24;100.00;99769.28;5053868;28;20422;-67
2023/03/24 02:56:28;;;;;;;5.97;1.63;;;;;;;11.25;100.00;99760.84;5053613;28;20865;-67
2023/03/24 02:59:00;;;;;;;5.80;2.20;;;;;;;11.22;100.00;99766.91;5054154;28;20423;-67
2023/03/24 03:01:32;;;;;;;6.60;2.23;;;;;;;11.18;100.00;99759.75;5053507;28;20523;-67
2023/03/24 03:04:02;;;;;;;6.13;2.10;;;;;;;11.16;100.00;99748.44;5053076;28;20415;-67
2023/03/24 03:06:32;;;;;;;6.10;1.80;;;;;;;11.13;100.00;99749.88;5053477;28;20442;-67
2023/03/24 03:09:04;;;;;;;6.40;2.00;;;;;;;11.14;100.00;99742.53;5053293;28;20438;-67
2023/03/24 03:11:32;;;;;;;6.53;1.77;;;;;;;11.08;100.00;99741.94;5053407;28;20493;-67
2023/03/24 03:14:02;;;;;;;4.90;1.40;;;;;;;11.09;100.00;99740.81;5053408;28;20450;-67
2023/03/24 03:16:37;;;;;;;6.57;2.00;;;;;;;11.09;100.00;99738.88;5053779;28;20439;-67
2023/03/24 03:19:08;;;;;;;6.23;1.80;;;;;;;11.15;100.00;99736.00;5053480;28;20438;-67
2023/03/24 03:21:40;;;;;;;8.87;2.00;;;;;;;11.16;100.00;99735.69;5053498;28;20496;-67
2023/03/24 03:24:10;;;;;;;6.23;2.17;;;;;;;11.16;100.00;99735.69;5053869;28;20430;-67
2023/03/24 03:26:39;;;;;;;6.73;2.20;;;;;;;11.14;100.00;99720.84;5053724;28;20496;-67
2023/03/24 03:29:11;;;;;;;6.77;2.70;;;;;;;11.10;100.00;99726.13;5053117;28;20550;-67
2023/03/24 03:31:43;;;;;;;7.37;2.10;;;;;;;11.15;100.00;99722.44;5053289;28;20481;-68
2023/03/24 03:34:19;;;;;;;5.77;1.90;;;;;;;11.18;100.00;99714.47;5053545;28;20476;-67
2023/03/24 03:36:50;;;;;;;7.40;2.37;;;;;;;11.20;100.00;99703.28;5053276;28;20907;-68
2023/03/24 03:39:23;;;;;;;6.83;1.93;;;;;;;11.20;100.00;99701.38;5053159;28;20896;-67
2023/03/24 03:41:52;;;;;;;6.20;1.90;;;;;;;11.19;100.00;99701.69;5053354;28;20474;-67
2023/03/24 03:44:19;;;;;;;6.33;2.10;;;;;;;11.21;100.00;99694.84;5053307;28;20465;-67
2023/03/24 03:46:45;;;;;;;6.83;1.67;;;;;;;11.17;100.00;99693.91;5052991;28;20529;-67
2023/03/24 03:49:12;;;;;;;5.63;1.87;;;;;;;11.21;100.00;99686.72;5053071;28;20446;-67
2023/03/24 03:51:39;;;;;;;5.70;1.63;;;;;;;11.20;100.00;99684.31;5053040;28;20474;-67
2023/03/24 03:54:09;;;;;;;7.23;2.37;;;;;;;11.22;100.00;99688.28;5053157;28;20446;-67
2023/03/24 03:56:38;;;;;;;11.17;2.53;;;;;;;11.23;100.00;99681.75;5053095;28;20841;-67
2023/03/24 03:59:07;;;;;;;5.80;2.10;;;;;;;11.19;100.00;99680.81;5053368;28;20500;-68
2023/03/24 04:01:36;;;;;;;8.80;2.70;;;;;;;11.16;100.00;99673.34;5052318;28;20975;-67
2023/03/24 04:04:36;;;;;;;6.33;2.17;;;;;;;11.18;100.00;99668.38;5052839;28;20449;-67
2023/03/24 04:07:15;;;;;;;8.00;2.63;;;;;;;11.13;100.00;99662.34;5053112;28;20446;-67
2023/03/24 04:09:58;;;;;;;11.23;2.40;;;;;;;11.15;100.00;99652.75;5053050;28;20484;-67
2023/03/24 04:12:43;;;;;;;8.03;2.30;;;;;;;11.16;100.00;99656.28;5051973;28;20430;-67
2023/03/24 04:15:31;;;;;;;6.90;2.60;;;;;;;11.19;100.00;99653.69;5056426;28;20523;-68
2023/03/24 04:18:12;;;;;;;6.33;2.43;;;;;;;11.20;100.00;99649.06;5054449;28;20504;-67
2023/03/24 04:20:46;;;;;;;6.20;2.13;;;;;;;11.15;100.00;99647.34;5056458;28;20461;-68
2023/03/24 04:23:25;;;;;;;6.30;2.20;;;;;;;11.19;100.00;99642.06;5047964;28;20530;-68
2023/03/24 04:26:01;;;;;;;10.93;2.83;;;;;;;11.25;100.00;99635.34;5056998;28;20441;-65
2023/03/24 04:28:36;;;;;;;7.53;2.37;;;;;;;11.18;100.00;99635.06;5056729;28;20422;-72
2023/03/24 04:31:08;;;;;;;7.45;2.80;;;;;;;11.20;100.00;99630.09;5082704;22;20998;-67
2023/03/24 04:33:47;;;;;;;5.67;2.27;;;;;;;11.27;100.00;99624.97;5015465;28;20467;-66
2023/03/24 04:36:21;;;;;;;6.53;2.30;;;;;;;11.34;100.00;99617.91;4997174;28;20508;-66
2023/03/24 04:38:52;;;;;;;8.90;3.07;;;;;;;11.30;100.00;99610.75;4997156;28;20433;-66
2023/03/24 04:41:20;;;;;;;8.60;2.40;;;;;;;11.37;100.00;99622.63;5005069;28;20985;-66
2023/03/24 04:43:48;;;;;;;6.80;2.27;;;;;;;11.34;100.00;99606.25;5015949;28;20444;-67
2023/03/24 04:46:17;;;;;;;8.90;3.03;;;;;;;11.42;100.00;99627.09;5016602;28;20527;-66
2023/03/24 04:48:46;;;;;;;6.50;2.10;;;;;;;11.45;100.00;99614.78;5016837;28;20451;-67
2023/03/24 04:51:14;;;;;;;7.43;2.23;;;;;;;11.46;100.00;99613.66;5016337;28;20476;-66
2023/03/24 04:53:41;;;;;;;5.83;1.97;;;;;;;11.52;100.00;99615.84;5016480;28;20444;-66
2023/03/24 04:56:27;;;;;;;7.37;3.23;;;;;;;11.55;100.00;99617.91;5016250;28;20570;-66
2023/03/24 04:58:53;;;;;;;7.20;2.77;;;;;;;11.52;100.00;99602.28;5019310;28;20440;-67
2023/03/24 05:01:21;;;;;;;6.70;2.30;;;;;;;11.53;100.00;99603.09;5015340;28;20468;-66
2023/03/24 05:03:48;;;;;;;7.73;3.10;;;;;;;11.59;100.00;99601.75;5016436;28;20484;-67
2023/03/24 05:06:15;;;;;;;10.77;2.97;;;;;;;11.65;100.00;99605.84;5016519;28;20442;-67
2023/03/24 05:08:42;;;;;;;10.80;2.60;;;;;;;11.67;100.00;99600.88;5016487;28;20819;-66
2023/03/24 05:11:09;;;;;;;7.10;2.70;;;;;;;11.71;100.00;99601.00;5016340;28;20486;-66
2023/03/24 05:13:36;;;;;;;11.93;3.10;;;;;;;11.71;100.00;99593.66;5015835;28;20483;-67
2023/03/24 05:16:02;;;;;;;12.10;3.37;;;;;;;11.77;100.00;99592.31;5015582;28;20475;-66
2023/03/24 05:18:30;;;;;;;9.03;3.10;;;;;;;11.77;100.00;99586.91;5015856;28;20967;-66
2023/03/24 05:20:57;;;;;;;6.60;2.60;;;;;;;11.77;100.00;99576.03;5015825;28;20531;-66
2023/03/24 05:23:23;;;;;;;6.67;2.40;;;;;;;11.81;100.00;99579.69;5014899;28;20957;-66
2023/03/24 05:25:50;;;;;;;6.40;2.47;;;;;;;11.86;100.00;99584.13;5014751;28;20444;-66
2023/03/24 05:28:17;;;;;;;7.60;2.40;;;;;;;11.84;100.00;99579.06;5016109;28;20436;-66
2023/03/24 05:30:43;;;;;;;6.53;2.40;;;;;;;11.83;100.00;99590.25;5016039;28;20440;-66
2023/03/24 05:33:10;;;;;;;7.87;2.90;;;;;;;11.88;100.00;99591.97;5015526;28;20479;-66
2023/03/24 05:35:38;;;;;;;7.10;2.50;;;;;;;11.90;100.00;99584.25;5015637;28;21009;-66
2023/03/24 05:38:04;;;;;;;7.13;2.70;;;;;;;11.95;100.00;99589.47;5015591;28;20475;-66
2023/03/24 05:40:31;;;;;;;6.83;2.83;;;;;;;11.96;100.00;99585.66;5015461;28;20883;-66
2023/03/24 05:42:57;;;;;;;8.93;2.93;;;;;;;11.96;100.00;99581.03;5015714;28;20837;-66
2023/03/24 05:45:24;;;;;;;16.60;3.80;;;;;;;11.93;100.00;99578.19;5015677;28;20464;-65
2023/03/24 05:47:51;;;;;;;8.60;2.87;;;;;;;11.97;100.00;99579.09;5015715;28;20506;-69
2023/03/24 05:50:17;;;;;;;9.77;3.40;;;;;;;12.02;100.00;99573.44;5015617;28;20543;-68
2023/03/24 05:52:45;;;;;;;5.97;2.20;;;;;;;12.06;100.00;99588.72;5015575;28;20479;-67
2023/03/24 05:55:14;;;;;;;8.07;2.60;;;;;;;12.09;100.00;99582.63;5015638;28;20574;-68
2023/03/24 05:57:42;;;;;;;7.13;2.87;;;;;;;12.19;100.00;99570.56;5015424;28;20536;-67
2023/03/24 06:00:15;;;;;;;8.27;2.87;;;;;;;12.25;100.00;99574.63;5015340;28;20902;-66
2023/03/24 06:02:42;;;;;;;6.80;2.23;;;;;;;12.30;100.00;99563.53;5015496;28;20543;-66
2023/03/24 06:05:09;;;;;;;7.00;2.50;;;;;;;12.35;100.00;99571.50;5015399;28;20558;-67
2023/03/24 06:07:37;;;;;;;8.03;3.10;;;;;;;12.42;100.00;99561.97;5015354;28;20440;-67
2023/03/24 06:10:06;;;;;;;5.43;2.10;;;;;;;12.47;100.00;99570.69;5015290;28;20452;-67
2023/03/24 06:12:34;;;;;;;6.00;2.33;;;;;;;12.52;100.00;99558.81;5015243;28;20526;-67
2023/03/24 06:15:00;;;;;;;7.90;2.40;;;;;;;12.58;100.00;99555.53;5015106;28;20439;-67
2023/03/24 06:17:29;;;;;;;6.27;2.07;;;;;;;12.69;100.00;99555.09;5015269;28;20439;-68
2023/03/24 06:20:04;;;;;;;7.57;2.30;;;;;;;12.69;100.00;99547.72;5015349;28;20444;-67
2023/03/24 06:22:32;;;;;;;7.80;2.30;;;;;;;12.73;100.00;99545.13;5015037;28;20467;-67
2023/03/24 06:24:59;;;;;;;7.93;2.83;;;;;;;12.84;100.00;99547.03;5015065;28;20448;-67
2023/03/24 06:27:28;;;;;;;6.50;2.23;;;;;;;12.88;100.00;99539.78;5014768;28;20479;-67
2023/03/24 06:29:55;;;;;;;8.63;2.80;;;;;;;12.92;100.00;99539.09;5014302;28;20483;-67
2023/03/24 06:32:22;;;;;;;9.70;3.00;;;;;;;12.93;100.00;99549.63;5014065;28;20563;-67
2023/03/24 06:34:49;;;;;;;6.77;2.90;;;;;;;12.99;100.00;99536.59;5014883;28;20478;-68
2023/03/24 06:37:15;;;;;;;6.37;1.97;;;;;;;12.98;100.00;99537.75;5014969;28;20575;-67
2023/03/24 06:39:42;;;;;;;5.77;2.23;;;;;;;12.93;100.00;99543.41;5014395;28;20470;-67
2023/03/24 06:42:09;;;;;;;5.80;1.93;;;;;;;12.89;100.00;99532.44;5014490;28;20526;-67
2023/03/24 06:44:37;;;;;;;7.93;2.80;;;;;;;12.89;100.00;99529.72;5014770;28;20439;-68
2023/03/24 06:47:03;;;;;;;6.07;2.03;;;;;;;12.91;100.00;99530.16;5014324;28;20974;-67
2023/03/24 06:49:31;;;;;;;6.27;2.00;;;;;;;12.90;100.00;99528.56;5014663;28;20507;-67
2023/03/24 06:51:57;;;;;;;14.93;2.40;;;;;;;12.92;100.00;99528.22;5013981;28;20474;-67
2023/03/24 06:54:24;;;;;;;7.60;2.20;;;;;;;12.93;100.00;99530.63;5014555;28;20440;-67
2023/03/24 06:56:51;;;;;;;7.47;2.53;;;;;;;12.93;100.00;99527.09;5014444;28;20567;-67
2023/03/24 06:59:22;;;;;;;6.00;1.87;;;;;;;12.96;100.00;99529.13;5014452;28;20448;-67
2023/03/24 07:01:50;;;;;;;6.97;2.13;;;;;;;13.00;100.00;99521.88;5013838;28;20476;-67
2023/03/24 07:04:17;;;;;;;7.00;2.40;;;;;;;13.03;100.00;99516.53;5013996;28;20483;-67
2023/03/24 07:06:44;;;;;;;7.03;2.27;;;;;;;13.02;100.00;99519.59;5013914;28;20483;-67
2023/03/24 07:09:12;;;;;;;6.30;2.47;;;;;;;13.08;100.00;99519.00;5013959;28;20476;-67
2023/03/24 07:11:38;;;;;;;7.93;2.30;;;;;;;13.09;100.00;99503.50;5013768;28;20463;-67
2023/03/24 07:14:06;;;;;;;7.20;2.67;;;;;;;13.12;100.00;99495.44;5013924;28;20448;-67
2023/03/24 07:16:32;;;;;;;9.40;2.77;;;;;;;13.21;100.00;99498.03;5014089;28;20582;-68
2023/03/24 07:19:01;;;;;;;6.27;2.30;;;;;;;13.25;100.00;99498.16;5014070;28;20454;-67
2023/03/24 07:21:28;;;;;;;6.30;2.13;;;;;;;13.30;100.00;99490.53;5013958;28;20530;-68
2023/03/24 07:23:54;;;;;;;9.60;2.50;;;;;;;13.38;100.00;99497.75;5013948;28;20541;-70
2023/03/24 07:26:21;;;;;;;8.23;2.90;;;;;;;13.48;100.00;99488.31;5014019;28;20475;-67
2023/03/24 07:28:47;;;;;;;7.63;2.73;;;;;;;13.55;100.00;99487.72;5012593;28;20451;-68
2023/03/24 07:31:14;;;;;;;7.23;2.43;;;;;;;13.70;100.00;99481.50;5012812;28;20462;-68
2023/03/24 07:33:41;;;;;;;6.77;2.33;;;;;;;13.75;100.00;99480.47;5013838;28;20432;-68
2023/03/24 07:36:09;;;;;;;7.70;2.40;;;;;;;13.78;100.00;99491.44;5013386;28;21076;-68
2023/03/24 07:38:36;;;;;;;10.40;3.03;;;;;;;13.89;100.00;99478.88;5013439;28;20440;-66
2023/03/24 07:41:02;;;;;;;5.80;1.93;;;;;;;13.88;100.00;99466.41;5013403;28;20798;-67
2023/03/24 07:43:29;;;;;;;7.50;1.80;;;;;;;13.83;100.00;99499.34;5013765;28;20533;-67
2023/03/24 07:45:55;;;;;;;6.10;2.20;;;;;;;13.84;100.00;99481.88;5013866;28;20538;-67
2023/03/24 07:48:22;;;;;;;5.67;1.90;;;;;;;13.73;100.00;99482.75;5013315;28;20524;-68
2023/03/24 07:50:49;;;;;;;6.80;2.40;;;;;;;13.59;100.00;99494.03;5013348;28;20479;-68
2023/03/24 07:53:18;;;;;;;6.77;2.20;;;;;;;13.55;100.00;99483.06;5012998;28;20526;-68
2023/03/24 07:55:45;;;;;;;5.17;1.73;;;;;;;13.42;100.00;99473.38;5013193;28;20483;-68
2023/03/24 07:58:12;;;;;;;6.60;2.20;;;;;;;13.38;100.00;99486.88;5012944;28;20494;-67
2023/03/24 08:00:38;;;;;;;11.43;2.20;;;;;;;13.41;100.00;99476.44;5012688;28;20448;-67
2023/03/24 08:03:08;;;;;;;6.07;2.03;;;;;;;13.41;100.00;99471.00;5012823;28;20468;-68
2023/03/24 08:05:35;;;;;;;6.80;2.27;;;;;;;13.35;100.00;99468.53;5013394;28;20456;-68
2023/03/24 08:08:05;;;;;;;6.37;2.07;;;;;;;13.30;100.00;99476.94;5013290;28;20485;-68
2023/03/24 08:10:33;;;;;;;9.37;3.07;;;;;;;13.34;100.00;99472.41;5012907;28;20447;-69
2023/03/24 08:13:00;;;;;;;6.83;2.77;;;;;;;13.32;100.00;99466.50;5013282;28;20499;-69
2023/03/24 08:15:28;;;;;;;7.50;2.43;;;;;;;13.31;100.00;99477.72;5006378;28;20969;-68
2023/03/24 08:17:56;;;;;;;6.13;2.17;;;;;;;13.32;100.00;99461.06;5007773;28;20443;-69
2023/03/24 08:20:23;;;;;;;9.00;2.77;;;;;;;13.31;100.00;99481.22;5012119;28;20455;-69
2023/03/24 08:22:52;;;;;;;8.80;2.80;;;;;;;13.33;100.00;99470.03;5001575;28;20489;-68
2023/03/24 08:25:21;;;;;;;6.37;2.23;;;;;;;13.35;100.00;99470.47;5013317;28;20440;-69
2023/03/24 08:27:49;;;;;;;7.93;2.63;;;;;;;13.42;100.00;99470.66;5010716;28;20451;-68
2023/03/24 08:30:18;;;;;;;8.63;2.57;;;;;;;13.45;100.00;99459.06;5011833;28;20451;-68
2023/03/24 08:32:46;;;;;;;6.67;2.93;;;;;;;13.43;100.00;99463.28;5012912;28;20868;-68
2023/03/24 08:35:14;;;;;;;9.70;2.60;;;;;;;13.48;100.00;99455.66;5013111;28;20531;-68
2023/03/24 08:37:42;;;;;;;7.17;2.20;;;;;;;13.54;100.00;99472.50;5013046;28;20533;-68
2023/03/24 08:40:12;;;;;;;17.03;2.77;;;;;;;13.58;100.00;99476.13;5012997;28;20926;-68
2023/03/24 08:42:40;;;;;;;7.97;2.73;;;;;;;13.66;100.00;99477.91;5012915;28;20464;-68
2023/03/24 08:45:11;;;;;;;8.53;2.60;;;;;;;13.84;100.00;99478.34;5013134;28;20448;-68
2023/03/24 08:47:37;;;;;;;7.57;2.43;;;;;;;13.91;100.00;99475.84;5013243;28;20420;-68
2023/03/24 08:50:06;;;;;;;6.60;2.83;;;;;;;14.00;99.38;99484.63;5012589;28;20884;-68
2023/03/24 08:52:33;;;;;;;9.83;3.10;;;;;;;14.05;99.02;99478.13;5012162;28;20492;-68
2023/03/24 08:55:00;;;;;;;7.97;2.80;;;;;;;14.15;97.97;99474.84;5012056;28;20475;-68
2023/03/24 08:57:27;;;;;;;7.43;3.10;;;;;;;14.25;97.29;99479.75;5011675;28;20530;-68
2023/03/24 08:59:53;;;;;;;9.17;3.20;;;;;;;14.27;97.25;99493.84;5012861;28;20816;-68
2023/03/24 09:02:21;;;;;;;6.73;2.40;;;;;;;14.26;96.77;99489.53;5016201;28;20547;-69
2023/03/24 09:04:52;;;;;;;10.00;3.60;;;;;;;14.33;96.25;99489.69;5001565;28;20440;-68
2023/03/24 09:07:19;;;;;;;7.93;2.70;;;;;;;14.37;96.96;99490.56;5016564;28;20441;-68
2023/03/24 09:09:46;;;;;;;7.20;2.87;;;;;;;14.41;96.20;99490.66;5016629;28;20450;-68
2023/03/24 09:12:12;;;;;;;6.17;2.50;;;;;;;14.48;95.69;99490.03;5016736;28;20543;-68
2023/03/24 09:14:39;;;;;;;6.03;2.20;;;;;;;14.53;96.15;99497.97;5016212;28;20447;-68
2023/03/24 09:17:05;;;;;;;6.27;2.20;;;;;;;14.62;95.17;99484.94;5016197;28;20483;-68
2023/03/24 09:19:34;;;;;;;5.70;1.80;;;;;;;14.71;93.66;99501.88;5016176;28;20519;-68
2023/03/24 09:22:00;;;;;;;5.23;1.90;;;;;;;14.85;93.08;99494.03;5016023;28;21002;-67
2023/03/24 09:24:27;;;;;;;7.00;1.93;;;;;;;14.92;93.99;99504.31;5016285;28;20444;-68
2023/03/24 09:26:53;;;;;;;9.20;2.20;;;;;;;15.02;92.00;99508.41;5016130;28;20459;-68
2023/03/24 09:29:20;;;;;;;5.30;1.23;;;;;;;15.18;92.17;99521.97;5016074;28;20439;-68
2023/03/24 09:31:47;;;;;;;6.40;1.70;;;;;;;15.44;90.93;99524.06;5015657;28;20503;-68
2023/03/24 09:34:13;;;;;;;6.40;2.43;;;;;;;15.52;89.32;99525.78;5016032;28;20479;-68
2023/03/24 09:36:41;;;;;;;6.53;1.97;;;;;;;15.48;89.82;99530.38;5015714;28;20507;-68
2023/03/24 09:39:08;;;;;;;5.67;2.40;;;;;;;15.48;89.27;99522.19;5015807;28;20491;-68
2023/03/24 09:41:35;;;;;;;6.13;1.93;;;;;;;15.54;89.70;99527.03;5015639;28;20487;-67
2023/03/24 09:44:07;;;;;;;6.00;1.80;;;;;;;15.45;90.12;99526.44;5015610;28;20444;-68
2023/03/24 09:46:37;;;;;;;4.80;1.20;;;;;;;15.47;89.47;99535.06;5015556;28;20952;-68
2023/03/24 09:49:04;;;;;;;8.10;2.17;;;;;;;15.51;89.15;99532.41;5015767;28;20475;-68
2023/03/24 09:51:34;;;;;;;5.80;1.80;;;;;;;15.56;89.45;99543.81;5015462;28;20523;-68
2023/03/24 09:54:11;;;;;;;6.10;2.40;;;;;;;15.69;88.05;99536.28;5016069;28;20784;-68
2023/03/24 09:56:41;;;;;;;6.40;2.00;;;;;;;15.74;86.92;99544.19;5015601;28;20476;-67
2023/03/24 09:59:16;;;;;;;11.43;1.97;;;;;;;15.61;89.17;99540.00;5015221;28;20965;-67
2023/03/24 10:01:42;;;;;;;6.33;2.03;;;;;;;15.43;91.36;99533.41;5015196;28;21067;-67
2023/03/24 10:04:15;;;;;;;5.13;1.60;;;;;;;15.38;89.29;99532.53;5015481;28;20518;-68
2023/03/24 10:06:42;;;;;;;6.17;1.90;;;;;;;15.34;87.16;99542.59;5015237;28;20509;-68
2023/03/24 10:09:22;;;;;;;5.40;1.57;;;;;;;15.36;87.68;99544.94;5015268;28;20879;-68
2023/03/24 10:12:00;;;;;;;6.70;1.90;;;;;;;15.49;88.17;99542.88;5014688;28;20510;-68
2023/03/24 10:14:42;;;;;;;5.97;1.80;;;;;;;15.64;85.50;99539.31;5014991;28;20965;-68
2023/03/24 10:17:15;;;;;;;5.00;1.37;;;;;;;15.87;83.60;99537.41;5015049;28;20571;-68
2023/03/24 10:19:52;;;;;;;5.83;1.83;;;;;;;15.92;80.08;99544.53;5015229;28;20448;-68
2023/03/24 10:22:25;;;;;;;6.47;1.80;;;;;;;16.06;78.81;99535.78;5015157;28;20456;-68
2023/03/24 10:24:59;;;;;;;6.00;1.97;;;;;;;16.01;79.85;99531.41;5014846;28;20413;-68
2023/03/24 10:27:31;;;;;;;4.73;1.40;;;;;;;16.12;79.64;99540.59;5015170;28;20551;-68
2023/03/24 10:30:06;;;;;;;5.97;1.87;;;;;;;16.35;78.59;99546.06;5015091;28;20876;-68
2023/03/24 10:32:35;;;;;;;5.27;1.53;;;;;;;16.45;79.62;99538.41;5014787;28;20490;-68
2023/03/24 10:35:08;;;;;;;6.20;1.50;;;;;;;16.52;80.67;99536.56;5014787;28;20444;-68
2023/03/24 10:37:36;;;;;;;5.50;1.57;;;;;;;16.62;80.23;99540.63;5014540;28;20588;-68
2023/03/24 10:40:15;;;;;;;5.57;1.90;;;;;;;16.68;80.72;99550.09;5014834;28;20444;-67
2023/03/24 10:42:42;;;;;;;5.63;1.70;;;;;;;16.68;80.59;99549.28;5014855;28;20483;-68
2023/03/24 10:45:14;;;;;;;6.60;1.80;;;;;;;16.58;80.64;99550.72;5014747;28;20447;-67
2023/03/24 10:47:42;;;;;;;6.20;1.83;;;;;;;16.63;79.85;99544.94;5014757;28;20512;-67
2023/03/24 10:50:11;;;;;;;5.70;1.50;;;;;;;16.80;79.64;99554.59;5014689;28;20444;-67
2023/03/24 10:52:42;;;;;;;6.63;1.73;;;;;;;16.93;79.94;99552.44;5014255;28;20467;-68
2023/03/24 10:55:17;;;;;;;6.30;1.60;;;;;;;16.92;78.18;99561.81;5014554;28;20436;-67
2023/03/24 10:57:46;;;;;;;5.53;1.83;;;;;;;16.96;77.87;99557.97;5014545;28;20470;-68
2023/03/24 11:00:21;;;;;;;6.60;1.90;;;;;;;17.03;78.13;99554.53;5014160;28;20957;-68
2023/03/24 11:02:55;;;;;;;5.53;2.10;;;;;;;16.98;77.80;99549.38;5014065;28;20977;-68
2023/03/24 11:05:29;;;;;;;6.73;2.23;;;;;;;16.98;76.22;99563.06;5014377;28;20420;-68
2023/03/24 11:08:00;;;;;;;5.70;1.80;;;;;;;16.99;75.73;99572.84;5014375;28;20480;-68
2023/03/24 11:10:29;;;;;;;6.30;1.90;;;;;;;16.95;76.30;99566.53;5014242;28;20432;-68
2023/03/24 11:13:03;;;;;;;5.90;1.60;;;;;;;17.10;74.86;99571.06;5014136;28;20468;-68
2023/03/24 11:15:32;;;;;;;6.20;1.90;;;;;;;17.04;75.65;99559.63;5013846;28;20898;-67
2023/03/24 11:18:05;;;;;;;5.30;1.50;;;;;;;17.21;75.70;99566.50;5014073;28;20516;-68
2023/03/24 11:20:35;;;;;;;5.43;1.27;;;;;;;17.41;74.56;99569.91;5013886;28;20482;-68
2023/03/24 11:23:04;;;;;;;5.60;1.40;;;;;;;17.84;71.95;99573.16;5013388;28;20503;-68
2023/03/24 11:25:36;;;;;;;5.73;1.60;;;;;;;17.86;70.29;99568.91;5014075;28;20444;-68
2023/03/24 11:28:07;;;;;;;6.13;1.67;;;;;;;17.56;70.12;99573.59;5014054;28;20428;-68
2023/03/24 11:30:44;;;;;;;4.60;1.10;;;;;;;17.71;69.44;99575.38;5013902;28;20443;-68
2023/03/24 11:33:17;;;;;;;6.23;1.77;;;;;;;18.00;67.49;99575.69;5013424;28;20486;-68
2023/03/24 11:35:44;;;;;;;5.00;1.20;;;;;;;18.31;66.35;99585.41;5013903;28;20432;-68
2023/03/24 11:38:16;;;;;;;5.37;1.30;;;;;;;18.37;66.07;99578.38;5013721;28;20490;-68
2023/03/24 11:40:53;;;;;;;5.33;1.50;;;;;;;18.17;65.74;99591.53;5013697;28;20482;-68